sensor_id;sensor_type;location;lat;lon;timestamp;pressure;altitude;pressure_sealevel;temperature;humidity
26807;BME280;14380;49.910;6.792;2023-03-24T00:01:51;97602.03;;;12.05;100.00
26807;BME280;14380;49.910;6.792;2023-03-24T00:04:18;97597.69;;;11.81;100.00
26807;BME280;14380;49.910;6.792;2023-03-24T00:06:46;97590.69;;;11.92;100.00
26807;BME280;14380;49.910;6.792;2023-03-24T00:09:15;97590.84;;;11.90;100.00
26807;BME280;14380;49.910;6.792;2023-03-24T00:11:42;97594.34;;;11.68;100.00
26807;BME280;14380;49.910;6.792;2023-03-24T00:14:10;97598.28;;;11.73;100.00
26807;BME280;14380;49.910;6.792;2023-03-24T00:16:37;97593.72;;;11.75;100.00
26807;BME280;14380;49.910;6.792;2023-03-24T00:19:07;97596.97;;;11.79;100.00
26807;BME280;14380;49.910;6.792;2023-03-24T00:21:35;97586.38;;;11.90;100.00
26807;BME280;14380;49.910;6.792;2023-03-24T00:24:03;97598.06;;;11.77;100.00
26807;BME280;14380;49.910;6.792;2023-03-24T00:26:33;97593.59;;;11.77;100.00
26807;BME280;14380;49.910;6.792;2023-03-24T00:29:02;97583.72;;;11.90;100.00
26807;BME280;14380;49.910;6.792;2023-03-24T00:31:29;97577.34;;;11.93;100.00
26807;BME280;14380;49.910;6.792;2023-03-24T00:33:56;97577.34;;;11.93;100.00
26807;BME280;14380;49.910;6.792;2023-03-24T00:36:25;97581.22;;;11.89;100.00
26807;BME280;14380;49.910;6.792;2023-03-24T00:38:54;97579.03;;;12.05;100.00
26807;BME280;14380;49.910;6.792;2023-03-24T00:41:22;97575.44;;;12.07;100.00
26807;BME280;14380;49.910;6.792;2023-03-24T00:43:54;97578.69;;;12.10;100.00
26807;BME280;14380;49.910;6.792;2023-03-24T00:46:22;97564.56;;;12.21;100.00
26807;BME280;14380;49.910;6.792;2023-03-24T00:48:53;97568.09;;;12.10;100.00
26807;BME280;14380;49.910;6.792;2023-03-24T00:51:26;97567.38;;;12.08;100.00
26807;BME280;14380;49.910;6.792;2023-03-24T00:53:53;97562.91;;;12.20;100.00
26807;BME280;14380;49.910;6.792;2023-03-24T00:56:23;97559.56;;;12.07;100.00
26807;BME280;14380;49.910;6.792;2023-03-24T00:58:53;97562.03;;;12.19;100.00
26807;BME280;14380;49.910;6.792;2023-03-24T01:01:23;97562.59;;;12.02;100.00
26807;BME280;14380;49.910;6.792;2023-03-24T01:03:50;97558.63;;;12.40;100.00
26807;BME280;14380;49.910;6.792;2023-03-24T01:06:18;97549.63;;;12.31;100.00
26807;BME280;14380;49.910;6.792;2023-03-24T01:08:48;97546.72;;;12.34;100.00
26807;BME280;14380;49.910;6.792;2023-03-24T01:11:18;97550.53;;;12.42;100.00
26807;BME280;14380;49.910;6.792;2023-03-24T01:13:47;97544.44;;;12.30;100.00
26807;BME280;14380;49.910;6.792;2023-03-24T01:16:15;97549.56;;;12.43;100.00
26807;BME280;14380;49.910;6.792;2023-03-24T01:18:42;97540.72;;;12.32;100.00
26807;BME280;14380;49.910;6.792;2023-03-24T01:21:11;97546.97;;;12.31;100.00
26807;BME280;14380;49.910;6.792;2023-03-24T01:23:38;97541.31;;;12.57;100.00
26807;BME280;14380;49.910;6.792;2023-03-24T01:26:08;97533.09;;;12.39;100.00
26807;BME280;14380;49.910;6.792;2023-03-24T01:28:35;97521.06;;;12.46;100.00
26807;BME280;14380;49.910;6.792;2023-03-24T01:31:06;97501.75;;;12.56;100.00
26807;BME280;14380;49.910;6.792;2023-03-24T01:33:35;97495.16;;;12.50;100.00
26807;BME280;14380;49.910;6.792;2023-03-24T01:36:03;97492.91;;;12.45;100.00
26807;BME280;14380;49.910;6.792;2023-03-24T01:38:30;97495.84;;;12.52;100.00
26807;BME280;14380;49.910;6.792;2023-03-24T01:40:57;97488.56;;;12.44;100.00
26807;BME280;14380;49.910;6.792;2023-03-24T01:43:26;97484.44;;;12.52;100.00
26807;BME280;14380;49.910;6.792;2023-03-24T01:46:14;97487.16;;;12.61;100.00
26807;BME280;14380;49.910;6.792;2023-03-24T01:48:48;97474.88;;;12.60;100.00
26807;BME280;14380;49.910;6.792;2023-03-24T01:51:20;97481.66;;;12.53;100.00
26807;BME280;14380;49.910;6.792;2023-03-24T01:53:52;97482.06;;;12.48;100.00
26807;BME280;14380;49.910;6.792;2023-03-24T01:56:20;97483.34;;;12.54;100.00
26807;BME280;14380;49.910;6.792;2023-03-24T01:58:51;97484.09;;;12.45;100.00
26807;BME280;14380;49.910;6.792;2023-03-24T02:01:19;97477.38;;;12.62;100.00
26807;BME280;14380;49.910;6.792;2023-03-24T02:03:48;97475.84;;;12.38;100.00
26807;BME280;14380;49.910;6.792;2023-03-24T02:06:17;97471.19;;;12.30;100.00
26807;BME280;14380;49.910;6.792;2023-03-24T02:08:48;97467.91;;;12.59;100.00
26807;BME280;14380;49.910;6.792;2023-03-24T02:11:18;97468.56;;;12.52;100.00
26807;BME280;14380;49.910;6.792;2023-03-24T02:13:45;97458.78;;;12.52;100.00
26807;BME280;14380;49.910;6.792;2023-03-24T02:16:23;97460.38;;;12.55;100.00
26807;BME280;14380;49.910;6.792;2023-03-24T02:19:04;97454.97;;;12.45;100.00
26807;BME280;14380;49.910;6.792;2023-03-24T02:28:03;97449.84;;;12.43;100.00
26807;BME280;14380;49.910;6.792;2023-03-24T02:30:59;97456.03;;;12.54;100.00
26807;BME280;14380;49.910;6.792;2023-03-24T02:34:04;97457.00;;;12.53;100.00
26807;BME280;14380;49.910;6.792;2023-03-24T02:37:05;97461.44;;;12.52;100.00
26807;BME280;14380;49.910;6.792;2023-03-24T02:39:55;97463.56;;;12.58;100.00
26807;BME280;14380;49.910;6.792;2023-03-24T02:42:35;97467.44;;;12.54;100.00
26807;BME280;14380;49.910;6.792;2023-03-24T02:45:11;97462.81;;;12.46;100.00
26807;BME280;14380;49.910;6.792;2023-03-24T02:47:51;97462.47;;;12.40;100.00
26807;BME280;14380;49.910;6.792;2023-03-24T02:50:26;97467.25;;;12.46;100.00
26807;BME280;14380;49.910;6.792;2023-03-24T02:53:00;97464.84;;;12.43;100.00
26807;BME280;14380;49.910;6.792;2023-03-24T02:55:37;97464.69;;;12.56;100.00
26807;BME280;14380;49.910;6.792;2023-03-24T02:58:07;97469.38;;;12.52;100.00
26807;BME280;14380;49.910;6.792;2023-03-24T03:00:42;97460.09;;;12.58;100.00
26807;BME280;14380;49.910;6.792;2023-03-24T03:03:16;97460.69;;;12.40;100.00
26807;BME280;14380;49.910;6.792;2023-03-24T03:05:48;97462.16;;;12.54;100.00
26807;BME280;14380;49.910;6.792;2023-03-24T03:08:17;97465.09;;;12.61;100.00
26807;BME280;14380;49.910;6.792;2023-03-24T03:10:48;97474.13;;;12.48;100.00
26807;BME280;14380;49.910;6.792;2023-03-24T03:13:19;97465.81;;;12.42;100.00
26807;BME280;14380;49.910;6.792;2023-03-24T03:15:52;97485.22;;;12.63;100.00
26807;BME280;14380;49.910;6.792;2023-03-24T03:18:22;97462.81;;;12.68;100.00
26807;BME280;14380;49.910;6.792;2023-03-24T03:20:55;97463.44;;;12.60;100.00
26807;BME280;14380;49.910;6.792;2023-03-24T03:23:29;97454.16;;;12.44;100.00
26807;BME280;14380;49.910;6.792;2023-03-24T03:26:01;97450.34;;;12.58;100.00
26807;BME280;14380;49.910;6.792;2023-03-24T03:28:32;97445.19;;;12.36;100.00
26807;BME280;14380;49.910;6.792;2023-03-24T03:31:01;97442.16;;;12.40;100.00
26807;BME280;14380;49.910;6.792;2023-03-24T03:33:34;97443.13;;;12.39;100.00
26807;BME280;14380;49.910;6.792;2023-03-24T03:36:07;97436.06;;;12.71;100.00
26807;BME280;14380;49.910;6.792;2023-03-24T03:38:43;97432.63;;;12.59;100.00
26807;BME280;14380;49.910;6.792;2023-03-24T03:41:14;97416.25;;;12.23;100.00
26807;BME280;14380;49.910;6.792;2023-03-24T03:43:43;97436.94;;;12.60;100.00
26807;BME280;14380;49.910;6.792;2023-03-24T03:46:10;97448.91;;;12.54;100.00
26807;BME280;14380;49.910;6.792;2023-03-24T03:48:38;97458.03;;;12.61;100.00
26807;BME280;14380;49.910;6.792;2023-03-24T03:51:06;97444.75;;;12.83;100.00
26807;BME280;14380;49.910;6.792;2023-03-24T03:53:39;97451.38;;;12.46;100.00
26807;BME280;14380;49.910;6.792;2023-03-24T03:56:08;97453.31;;;12.44;100.00
26807;BME280;14380;49.910;6.792;2023-03-24T03:58:37;97458.47;;;12.67;100.00
26807;BME280;14380;49.910;6.792;2023-03-24T04:01:06;97452.72;;;12.61;100.00
26807;BME280;14380;49.910;6.792;2023-03-24T04:03:47;97446.47;;;12.62;100.00
26807;BME280;14380;49.910;6.792;2023-03-24T04:06:25;97455.69;;;12.68;100.00
26807;BME280;14380;49.910;6.792;2023-03-24T04:09:01;97466.06;;;12.60;100.00
26807;BME280;14380;49.910;6.792;2023-03-24T04:11:36;97459.00;;;12.60;100.00
26807;BME280;14380;49.910;6.792;2023-03-24T04:14:28;97458.78;;;12.73;100.00
26807;BME280;14380;49.910;6.792;2023-03-24T04:17:08;97459.63;;;12.74;100.00
26807;BME280;14380;49.910;6.792;2023-03-24T04:19:52;97464.81;;;12.54;100.00
26807;BME280;14380;49.910;6.792;2023-03-24T04:22:26;97460.00;;;12.69;100.00
26807;BME280;14380;49.910;6.792;2023-03-24T04:25:05;97471.56;;;12.68;100.00
26807;BME280;14380;49.910;6.792;2023-03-24T04:27:44;97466.69;;;12.63;100.00
26807;BME280;14380;49.910;6.792;2023-03-24T04:30:18;97469.84;;;12.57;100.00
26807;BME280;14380;49.910;6.792;2023-03-24T04:32:50;97483.59;;;12.72;100.00
26807;BME280;14380;49.910;6.792;2023-03-24T04:35:26;97479.75;;;12.86;100.00
26807;BME280;14380;49.910;6.792;2023-03-24T04:37:58;97485.16;;;12.75;100.00
26807;BME280;14380;49.910;6.792;2023-03-24T04:40:30;97476.59;;;12.71;100.00
26807;BME280;14380;49.910;6.792;2023-03-24T04:43:00;97480.56;;;12.77;100.00
26807;BME280;14380;49.910;6.792;2023-03-24T04:45:30;97478.69;;;12.68;100.00
26807;BME280;14380;49.910;6.792;2023-03-24T04:47:59;97487.00;;;12.84;100.00
26807;BME280;14380;49.910;6.792;2023-03-24T04:50:28;97476.28;;;12.86;100.00
26807;BME280;14380;49.910;6.792;2023-03-24T04:52:56;97473.13;;;12.71;100.00
26807;BME280;14380;49.910;6.792;2023-03-24T04:55:49;97468.28;;;12.76;100.00
26807;BME280;14380;49.910;6.792;2023-03-24T04:58:20;97467.63;;;12.84;100.00
26807;BME280;14380;49.910;6.792;2023-03-24T05:00:49;97480.63;;;12.66;100.00
26807;BME280;14380;49.910;6.792;2023-03-24T05:03:17;97484.28;;;12.96;100.00
26807;BME280;14380;49.910;6.792;2023-03-24T05:05:46;97482.53;;;12.85;100.00
26807;BME280;14380;49.910;6.792;2023-03-24T05:08:15;97482.66;;;12.83;100.00
26807;BME280;14380;49.910;6.792;2023-03-24T05:10:43;97475.28;;;13.08;100.00
26807;BME280;14380;49.910;6.792;2023-03-24T05:13:10;97477.66;;;12.80;100.00
26807;BME280;14380;49.910;6.792;2023-03-24T05:15:37;97472.06;;;12.83;100.00
26807;BME280;14380;49.910;6.792;2023-03-24T05:18:06;97485.88;;;12.77;100.00
26807;BME280;14380;49.910;6.792;2023-03-24T05:20:33;97480.66;;;12.97;100.00
26807;BME280;14380;49.910;6.792;2023-03-24T05:23:00;97481.69;;;12.84;100.00
26807;BME280;14380;49.910;6.792;2023-03-24T05:25:27;97487.84;;;12.85;100.00
26807;BME280;14380;49.910;6.792;2023-03-24T05:27:53;97484.94;;;12.88;100.00
26807;BME280;14380;49.910;6.792;2023-03-24T05:30:20;97487.31;;;12.91;100.00
26807;BME280;14380;49.910;6.792;2023-03-24T05:32:46;97483.53;;;12.84;100.00
26807;BME280;14380;49.910;6.792;2023-03-24T05:35:15;97481.38;;;12.77;100.00
26807;BME280;14380;49.910;6.792;2023-03-24T05:37:42;97486.69;;;12.56;100.00
26807;BME280;14380;49.910;6.792;2023-03-24T05:40:09;97489.00;;;12.92;100.00
26807;BME280;14380;49.910;6.792;2023-03-24T05:42:36;97484.03;;;12.77;100.00
26807;BME280;14380;49.910;6.792;2023-03-24T05:45:03;97483.00;;;12.90;100.00
26807;BME280;14380;49.910;6.792;2023-03-24T05:47:30;97485.00;;;12.76;100.00
26807;BME280;14380;49.910;6.792;2023-03-24T05:49:57;97479.66;;;12.67;100.00
26807;BME280;14380;49.910;6.792;2023-03-24T05:52:25;97483.25;;;12.87;100.00
26807;BME280;14380;49.910;6.792;2023-03-24T05:54:51;97483.38;;;12.85;100.00
26807;BME280;14380;49.910;6.792;2023-03-24T05:57:19;97480.09;;;12.93;100.00
26807;BME280;14380;49.910;6.792;2023-03-24T05:59:45;97493.81;;;12.77;100.00
26807;BME280;14380;49.910;6.792;2023-03-24T06:02:12;97489.84;;;12.71;100.00
26807;BME280;14380;49.910;6.792;2023-03-24T06:04:39;97493.81;;;12.77;100.00
26807;BME280;14380;49.910;6.792;2023-03-24T06:07:10;97495.66;;;12.86;100.00
26807;BME280;14380;49.910;6.792;2023-03-24T06:09:38;97494.41;;;12.90;100.00
26807;BME280;14380;49.910;6.792;2023-03-24T06:12:07;97499.22;;;12.75;100.00
26807;BME280;14380;49.910;6.792;2023-03-24T06:14:34;97507.06;;;13.08;100.00
26807;BME280;14380;49.910;6.792;2023-03-24T06:17:02;97500.59;;;12.70;100.00
26807;BME280;14380;49.910;6.792;2023-03-24T06:19:29;97498.22;;;12.98;100.00
26807;BME280;14380;49.910;6.792;2023-03-24T06:21:58;97502.56;;;12.99;100.00
26807;BME280;14380;49.910;6.792;2023-03-24T06:24:28;97509.69;;;12.98;100.00
26807;BME280;14380;49.910;6.792;2023-03-24T06:26:56;97503.22;;;12.91;100.00
26807;BME280;14380;49.910;6.792;2023-03-24T06:29:26;97506.47;;;13.04;100.00
26807;BME280;14380;49.910;6.792;2023-03-24T06:31:53;97508.25;;;12.94;100.00
26807;BME280;14380;49.910;6.792;2023-03-24T06:34:20;97508.06;;;12.86;100.00
26807;BME280;14380;49.910;6.792;2023-03-24T06:36:49;97506.63;;;13.03;100.00
26807;BME280;14380;49.910;6.792;2023-03-24T06:39:15;97498.25;;;12.76;100.00
26807;BME280;14380;49.910;6.792;2023-03-24T06:41:42;97498.72;;;13.13;100.00
26807;BME280;14380;49.910;6.792;2023-03-24T06:44:10;97502.25;;;13.23;100.00
26807;BME280;14380;49.910;6.792;2023-03-24T06:46:36;97504.41;;;13.08;100.00
26807;BME280;14380;49.910;6.792;2023-03-24T06:49:04;97505.97;;;13.11;100.00
26807;BME280;14380;49.910;6.792;2023-03-24T06:51:31;97504.09;;;13.22;100.00
26807;BME280;14380;49.910;6.792;2023-03-24T06:53:58;97513.09;;;13.10;100.00
26807;BME280;14380;49.910;6.792;2023-03-24T06:56:24;97514.31;;;13.06;100.00
26807;BME280;14380;49.910;6.792;2023-03-24T06:58:51;97524.50;;;13.11;100.00
26807;BME280;14380;49.910;6.792;2023-03-24T07:01:19;97531.19;;;13.05;100.00
26807;BME280;14380;49.910;6.792;2023-03-24T07:03:46;97525.94;;;13.15;100.00
26807;BME280;14380;49.910;6.792;2023-03-24T07:06:14;97521.41;;;13.05;100.00
26807;BME280;14380;49.910;6.792;2023-03-24T07:08:40;97526.81;;;12.94;100.00
26807;BME280;14380;49.910;6.792;2023-03-24T07:11:09;97527.59;;;13.16;100.00
26807;BME280;14380;49.910;6.792;2023-03-24T07:13:35;97531.44;;;13.02;100.00
26807;BME280;14380;49.910;6.792;2023-03-24T07:16:02;97525.38;;;13.42;100.00
26807;BME280;14380;49.910;6.792;2023-03-24T07:18:31;97521.00;;;13.31;100.00
26807;BME280;14380;49.910;6.792;2023-03-24T07:20:57;97519.81;;;13.14;100.00
26807;BME280;14380;49.910;6.792;2023-03-24T07:23:24;97516.50;;;13.32;100.00
26807;BME280;14380;49.910;6.792;2023-03-24T07:25:52;97529.88;;;13.42;100.00
26807;BME280;14380;49.910;6.792;2023-03-24T07:28:19;97544.00;;;13.31;100.00
26807;BME280;14380;49.910;6.792;2023-03-24T07:30:45;97538.47;;;13.65;100.00
26807;BME280;14380;49.910;6.792;2023-03-24T07:33:12;97540.84;;;13.68;100.00
26807;BME280;14380;49.910;6.792;2023-03-24T07:35:41;97548.41;;;13.82;100.00
26807;BME280;14380;49.910;6.792;2023-03-24T07:38:08;97546.81;;;13.70;100.00
26807;BME280;14380;49.910;6.792;2023-03-24T07:40:35;97555.28;;;13.54;100.00
26807;BME280;14380;49.910;6.792;2023-03-24T07:43:03;97569.38;;;13.45;100.00
26807;BME280;14380;49.910;6.792;2023-03-24T07:45:30;97585.13;;;13.25;100.00
26807;BME280;14380;49.910;6.792;2023-03-24T07:47:57;97600.47;;;13.21;100.00
26807;BME280;14380;49.910;6.792;2023-03-24T07:50:26;97608.41;;;12.46;100.00
26807;BME280;14380;49.910;6.792;2023-03-24T07:52:55;97604.50;;;12.18;100.00
26807;BME280;14380;49.910;6.792;2023-03-24T07:55:22;97625.13;;;12.47;100.00
26807;BME280;14380;49.910;6.792;2023-03-24T07:57:50;97619.28;;;12.32;100.00
26807;BME280;14380;49.910;6.792;2023-03-24T08:00:17;97606.03;;;12.32;100.00
26807;BME280;14380;49.910;6.792;2023-03-24T08:02:47;97600.50;;;12.35;100.00
26807;BME280;14380;49.910;6.792;2023-03-24T08:05:14;97623.22;;;12.38;100.00
26807;BME280;14380;49.910;6.792;2023-03-24T08:07:45;97635.09;;;12.55;100.00
26807;BME280;14380;49.910;6.792;2023-03-24T08:10:16;97630.00;;;12.19;100.00
26807;BME280;14380;49.910;6.792;2023-03-24T08:12:42;97627.75;;;12.03;100.00
26807;BME280;14380;49.910;6.792;2023-03-24T08:15:09;97632.66;;;12.19;100.00
26807;BME280;14380;49.910;6.792;2023-03-24T08:17:37;97634.34;;;12.09;100.00
26807;BME280;14380;49.910;6.792;2023-03-24T08:20:06;97628.72;;;12.13;100.00
26807;BME280;14380;49.910;6.792;2023-03-24T08:22:36;97642.91;;;12.12;100.00
26807;BME280;14380;49.910;6.792;2023-03-24T08:25:04;97647.72;;;12.07;100.00
26807;BME280;14380;49.910;6.792;2023-03-24T08:27:34;97659.13;;;12.19;100.00
26807;BME280;14380;49.910;6.792;2023-03-24T08:30:02;97656.72;;;12.04;100.00
26807;BME280;14380;49.910;6.792;2023-03-24T08:32:29;97658.03;;;11.99;100.00
26807;BME280;14380;49.910;6.792;2023-03-24T08:34:56;97674.16;;;12.18;100.00
26807;BME280;14380;49.910;6.792;2023-03-24T08:37:23;97669.84;;;12.06;100.00
26807;BME280;14380;49.910;6.792;2023-03-24T08:39:50;97674.88;;;12.20;100.00
26807;BME280;14380;49.910;6.792;2023-03-24T08:42:16;97674.66;;;12.01;100.00
26807;BME280;14380;49.910;6.792;2023-03-24T08:44:45;97673.56;;;12.26;100.00
26807;BME280;14380;49.910;6.792;2023-03-24T08:47:12;97679.16;;;12.44;100.00
26807;BME280;14380;49.910;6.792;2023-03-24T08:49:38;97675.34;;;12.37;100.00
26807;BME280;14380;49.910;6.792;2023-03-24T08:52:05;97681.59;;;12.25;100.00
26807;BME280;14380;49.910;6.792;2023-03-24T08:54:33;97679.72;;;12.04;100.00
26807;BME280;14380;49.910;6.792;2023-03-24T08:57:00;97675.34;;;12.26;100.00
26807;BME280;14380;49.910;6.792;2023-03-24T08:59:26;97682.69;;;12.22;100.00
26807;BME280;14380;49.910;6.792;2023-03-24T09:01:55;97691.22;;;12.14;100.00
26807;BME280;14380;49.910;6.792;2023-03-24T09:04:21;97708.41;;;11.97;100.00
26807;BME280;14380;49.910;6.792;2023-03-24T09:06:48;97715.38;;;11.87;100.00
26807;BME280;14380;49.910;6.792;2023-03-24T09:09:17;97717.66;;;11.80;100.00
26807;BME280;14380;49.910;6.792;2023-03-24T09:11:44;97722.69;;;11.83;100.00
26807;BME280;14380;49.910;6.792;2023-03-24T09:14:12;97731.75;;;11.92;100.00
26807;BME280;14380;49.910;6.792;2023-03-24T09:16:39;97734.38;;;11.92;100.00
26807;BME280;14380;49.910;6.792;2023-03-24T09:19:09;97732.38;;;12.07;100.00
26807;BME280;14380;49.910;6.792;2023-03-24T09:21:36;97745.63;;;11.60;100.00
26807;BME280;14380;49.910;6.792;2023-03-24T09:24:03;97744.31;;;11.66;100.00
26807;BME280;14380;49.910;6.792;2023-03-24T09:26:30;97743.25;;;11.80;100.00
26807;BME280;14380;49.910;6.792;2023-03-24T09:28:58;97737.91;;;12.04;100.00
26807;BME280;14380;49.910;6.792;2023-03-24T09:31:24;97746.56;;;12.06;100.00
26807;BME280;14380;49.910;6.792;2023-03-24T09:33:51;97754.84;;;12.01;100.00
26807;BME280;14380;49.910;6.792;2023-03-24T09:36:20;97755.69;;;12.25;100.00
26807;BME280;14380;49.910;6.792;2023-03-24T09:38:46;97757.97;;;12.07;100.00
26807;BME280;14380;49.910;6.792;2023-03-24T09:41:16;97758.84;;;12.07;100.00
26807;BME280;14380;49.910;6.792;2023-03-24T09:43:45;97753.78;;;12.38;100.00
26807;BME280;14380;49.910;6.792;2023-03-24T09:46:18;97753.53;;;12.30;100.00
26807;BME280;14380;49.910;6.792;2023-03-24T09:48:51;97745.69;;;12.40;100.00
26807;BME280;14380;49.910;6.792;2023-03-24T09:51:22;97756.91;;;12.55;100.00
26807;BME280;14380;49.910;6.792;2023-03-24T09:53:56;97753.63;;;12.74;100.00
26807;BME280;14380;49.910;6.792;2023-03-24T09:56:25;97758.88;;;12.85;100.00
26807;BME280;14380;49.910;6.792;2023-03-24T09:59:01;97752.47;;;12.99;100.00
26807;BME280;14380;49.910;6.792;2023-03-24T10:01:28;97763.91;;;13.00;100.00
26807;BME280;14380;49.910;6.792;2023-03-24T10:03:56;97747.38;;;13.07;100.00
26807;BME280;14380;49.910;6.792;2023-03-24T10:06:28;97753.19;;;13.01;100.00
26807;BME280;14380;49.910;6.792;2023-03-24T10:09:07;97755.13;;;12.99;100.00
26807;BME280;14380;49.910;6.792;2023-03-24T10:11:42;97761.00;;;13.03;100.00
26807;BME280;14380;49.910;6.792;2023-03-24T10:14:20;97756.09;;;12.98;100.00
26807;BME280;14380;49.910;6.792;2023-03-24T10:16:57;97757.97;;;13.07;100.00
26807;BME280;14380;49.910;6.792;2023-03-24T10:19:36;97757.75;;;13.43;100.00
26807;BME280;14380;49.910;6.792;2023-03-24T10:22:13;97766.88;;;13.72;100.00
26807;BME280;14380;49.910;6.792;2023-03-24T10:24:47;97776.47;;;14.46;100.00
26807;BME280;14380;49.910;6.792;2023-03-24T10:27:22;97780.22;;;14.34;100.00
26807;BME280;14380;49.910;6.792;2023-03-24T10:29:56;97775.56;;;14.57;100.00
26807;BME280;14380;49.910;6.792;2023-03-24T10:32:28;97783.75;;;14.75;100.00
26807;BME280;14380;49.910;6.792;2023-03-24T10:34:58;97793.72;;;14.52;100.00
26807;BME280;14380;49.910;6.792;2023-03-24T10:37:35;97780.41;;;14.83;100.00
26807;BME280;14380;49.910;6.792;2023-03-24T10:40:12;97795.63;;;14.81;100.00
26807;BME280;14380;49.910;6.792;2023-03-24T10:42:40;97801.75;;;14.09;100.00
26807;BME280;14380;49.910;6.792;2023-03-24T10:45:11;97807.47;;;14.67;100.00
26807;BME280;14380;49.910;6.792;2023-03-24T10:47:39;97796.91;;;14.55;98.20
26807;BME280;14380;49.910;6.792;2023-03-24T10:50:08;97797.34;;;14.92;96.76
26807;BME280;14380;49.910;6.792;2023-03-24T10:52:39;97787.44;;;14.63;96.82
26807;BME280;14380;49.910;6.792;2023-03-24T10:55:12;97778.00;;;14.70;92.79
26807;BME280;14380;49.910;6.792;2023-03-24T10:57:41;97776.22;;;14.90;95.54
26807;BME280;14380;49.910;6.792;2023-03-24T11:00:16;97776.25;;;15.10;98.25
26807;BME280;14380;49.910;6.792;2023-03-24T11:02:53;97767.81;;;14.75;93.20
26807;BME280;14380;49.910;6.792;2023-03-24T11:05:26;97772.31;;;15.24;94.72
26807;BME280;14380;49.910;6.792;2023-03-24T11:07:59;97760.66;;;14.76;88.37
26807;BME280;14380;49.910;6.792;2023-03-24T11:10:35;97767.84;;;15.05;87.64
26807;BME280;14380;49.910;6.792;2023-03-24T11:13:03;97769.50;;;15.06;85.77
26807;BME280;14380;49.910;6.792;2023-03-24T11:15:33;97766.25;;;14.72;85.34
26807;BME280;14380;49.910;6.792;2023-03-24T11:18:11;97767.03;;;14.22;83.25
26807;BME280;14380;49.910;6.792;2023-03-24T11:20:43;97770.38;;;14.55;80.33
26807;BME280;14380;49.910;6.792;2023-03-24T11:23:17;97777.47;;;14.96;81.49
26807;BME280;14380;49.910;6.792;2023-03-24T11:25:48;97772.97;;;14.86;77.62
26807;BME280;14380;49.910;6.792;2023-03-24T11:28:20;97774.00;;;15.94;82.28
26807;BME280;14380;49.910;6.792;2023-03-24T11:30:50;97778.94;;;15.39;74.97
26807;BME280;14380;49.910;6.792;2023-03-24T11:33:19;97768.13;;;16.38;76.25
26807;BME280;14380;49.910;6.792;2023-03-24T11:35:47;97776.22;;;16.46;76.38
26807;BME280;14380;49.910;6.792;2023-03-24T11:38:18;97780.03;;;16.71;74.64
26807;BME280;14380;49.910;6.792;2023-03-24T11:40:54;97775.00;;;16.68;68.63
26807;BME280;14380;49.910;6.792;2023-03-24T11:43:23;97776.34;;;16.54;68.33
26807;BME280;14380;49.910;6.792;2023-03-24T11:45:56;97772.78;;;16.91;71.46
26807;BME280;14380;49.910;6.792;2023-03-24T11:48:29;97774.34;;;16.56;65.72
26807;BME280;14380;49.910;6.792;2023-03-24T11:51:00;97780.34;;;16.58;67.21
26807;BME280;14380;49.910;6.792;2023-03-24T11:53:35;97787.44;;;15.72;66.53
26807;BME280;14380;49.910;6.792;2023-03-24T11:56:10;97780.88;;;16.44;66.63
26807;BME280;14380;49.910;6.792;2023-03-24T11:58:44;97781.97;;;16.03;66.85
26807;BME280;14380;49.910;6.792;2023-03-24T12:01:16;97794.31;;;16.04;65.31
26807;BME280;14380;49.910;6.792;2023-03-24T12:03:59;97794.47;;;15.54;67.96
26807;BME280;14380;49.910;6.792;2023-03-24T12:06:37;97797.25;;;15.82;67.39
26807;BME280;14380;49.910;6.792;2023-03-24T12:09:20;97804.84;;;15.57;67.14
26807;BME280;14380;49.910;6.792;2023-03-24T12:12:00;97807.63;;;15.65;69.18
26807;BME280;14380;49.910;6.792;2023-03-24T12:14:36;97807.19;;;15.21;68.69
26807;BME280;14380;49.910;6.792;2023-03-24T12:17:10;97791.75;;;14.95;66.74
26807;BME280;14380;49.910;6.792;2023-03-24T12:19:59;97794.03;;;15.68;69.33
26807;BME280;14380;49.910;6.792;2023-03-24T12:22:40;97800.53;;;16.23;69.98
26807;BME280;14380;49.910;6.792;2023-03-24T12:25:37;97786.25;;;16.24;67.72
26807;BME280;14380;49.910;6.792;2023-03-24T12:28:18;97793.19;;;16.73;65.55
26807;BME280;14380;49.910;6.792;2023-03-24T12:30:56;97793.63;;;17.24;64.72
26807;BME280;14380;49.910;6.792;2023-03-24T12:33:36;97784.97;;;16.66;62.70
26807;BME280;14380;49.910;6.792;2023-03-24T12:36:16;97786.13;;;16.82;63.58
26807;BME280;14380;49.910;6.792;2023-03-24T12:38:58;97782.69;;;16.71;64.69
26807;BME280;14380;49.910;6.792;2023-03-24T12:42:06;97782.94;;;16.12;63.64
26807;BME280;14380;49.910;6.792;2023-03-24T12:44:37;97784.81;;;16.40;65.57
26807;BME280;14380;49.910;6.792;2023-03-24T12:47:18;97780.38;;;16.20;65.13
26807;BME280;14380;49.910;6.792;2023-03-24T12:50:02;97761.78;;;16.76;66.43
26807;BME280;14380;49.910;6.792;2023-03-24T12:52:42;97759.63;;;16.80;63.59
26807;BME280;14380;49.910;6.792;2023-03-24T12:55:17;97772.88;;;16.34;66.82
26807;BME280;14380;49.910;6.792;2023-03-24T12:57:53;97783.13;;;15.91;65.97
26807;BME280;14380;49.910;6.792;2023-03-24T13:00:24;97771.56;;;16.10;65.91
26807;BME280;14380;49.910;6.792;2023-03-24T13:02:55;97769.00;;;16.56;65.27
26807;BME280;14380;49.910;6.792;2023-03-24T13:05:28;97769.16;;;17.11;67.09
26807;BME280;14380;49.910;6.792;2023-03-24T13:07:58;97773.81;;;17.45;65.52
26807;BME280;14380;49.910;6.792;2023-03-24T13:10:27;97770.69;;;17.13;67.49
26807;BME280;14380;49.910;6.792;2023-03-24T13:12:59;97768.84;;;16.86;65.93
26807;BME280;14380;49.910;6.792;2023-03-24T13:15:32;97762.94;;;17.20;64.18
26807;BME280;14380;49.910;6.792;2023-03-24T13:18:05;97747.44;;;17.05;63.65
26807;BME280;14380;49.910;6.792;2023-03-24T13:20:43;97740.00;;;17.53;62.38